sensor_id;sensor_type;location;lat;lon;timestamp;temperature;humidity
81222;DHT22;70691;52.492;13.420;2023-07-31T00:02:14;18.50;62.30
81222;DHT22;70691;52.492;13.420;2023-07-31T00:04:40;18.50;62.10
81222;DHT22;70691;52.492;13.420;2023-07-31T00:07:06;18.40;62.10
81222;DHT22;70691;52.492;13.420;2023-07-31T00:09:33;18.40;62.50
81222;DHT22;70691;52.492;13.420;2023-07-31T00:11:59;18.40;62.50
81222;DHT22;70691;52.492;13.420;2023-07-31T00:14:24;18.40;62.60
81222;DHT22;70691;52.492;13.420;2023-07-31T00:16:50;18.30;62.80
81222;DHT22;70691;52.492;13.420;2023-07-31T00:19:16;18.20;62.80
81222;DHT22;70691;52.492;13.420;2023-07-31T00:21:41;18.20;62.90
81222;DHT22;70691;52.492;13.420;2023-07-31T00:24:07;18.30;62.90
81222;DHT22;70691;52.492;13.420;2023-07-31T00:26:33;18.20;62.90
81222;DHT22;70691;52.492;13.420;2023-07-31T00:28:58;18.30;62.90
81222;DHT22;70691;52.492;13.420;2023-07-31T00:31:24;18.30;62.90
81222;DHT22;70691;52.492;13.420;2023-07-31T00:33:50;18.30;62.80
81222;DHT22;70691;52.492;13.420;2023-07-31T00:36:15;18.30;63.30
81222;DHT22;70691;52.492;13.420;2023-07-31T00:38:43;18.20;63.30
81222;DHT22;70691;52.492;13.420;2023-07-31T00:41:09;18.20;63.40
81222;DHT22;70691;52.492;13.420;2023-07-31T00:43:34;18.20;63.30
81222;DHT22;70691;52.492;13.420;2023-07-31T00:46:00;18.20;63.30
81222;DHT22;70691;52.492;13.420;2023-07-31T00:48:26;18.20;63.30
81222;DHT22;70691;52.492;13.420;2023-07-31T00:50:52;18.20;63.20
81222;DHT22;70691;52.492;13.420;2023-07-31T00:53:18;18.20;63.30
81222;DHT22;70691;52.492;13.420;2023-07-31T00:55:44;18.20;63.40
81222;DHT22;70691;52.492;13.420;2023-07-31T00:58:09;18.20;63.50
81222;DHT22;70691;52.492;13.420;2023-07-31T01:00:35;18.20;63.50
81222;DHT22;70691;52.492;13.420;2023-07-31T01:03:01;18.20;63.30
81222;DHT22;70691;52.492;13.420;2023-07-31T01:10:55;18.40;63.70
81222;DHT22;70691;52.492;13.420;2023-07-31T01:13:21;18.40;63.70
81222;DHT22;70691;52.492;13.420;2023-07-31T01:15:47;18.40;64.00
81222;DHT22;70691;52.492;13.420;2023-07-31T01:18:13;18.40;63.90
81222;DHT22;70691;52.492;13.420;2023-07-31T01:20:41;18.40;64.10
81222;DHT22;70691;52.492;13.420;2023-07-31T01:28:37;18.50;63.80
81222;DHT22;70691;52.492;13.420;2023-07-31T01:31:07;18.50;64.00
81222;DHT22;70691;52.492;13.420;2023-07-31T01:33:35;18.50;63.90
81222;DHT22;70691;52.492;13.420;2023-07-31T01:36:02;18.50;63.80
81222;DHT22;70691;52.492;13.420;2023-07-31T01:38:27;18.50;63.50
81222;DHT22;70691;52.492;13.420;2023-07-31T01:40:53;18.50;63.20
81222;DHT22;70691;52.492;13.420;2023-07-31T01:43:19;18.50;63.20
81222;DHT22;70691;52.492;13.420;2023-07-31T01:45:45;18.50;63.60
81222;DHT22;70691;52.492;13.420;2023-07-31T01:48:10;18.50;63.50
81222;DHT22;70691;52.492;13.420;2023-07-31T01:50:36;18.50;63.60
81222;DHT22;70691;52.492;13.420;2023-07-31T01:53:02;18.50;63.40
81222;DHT22;70691;52.492;13.420;2023-07-31T01:55:27;18.50;63.10
81222;DHT22;70691;52.492;13.420;2023-07-31T01:57:53;18.50;63.60
81222;DHT22;70691;52.492;13.420;2023-07-31T02:00:19;18.50;63.60
81222;DHT22;70691;52.492;13.420;2023-07-31T02:02:44;18.50;63.60
81222;DHT22;70691;52.492;13.420;2023-07-31T02:05:10;18.50;63.50
81222;DHT22;70691;52.492;13.420;2023-07-31T02:07:36;18.50;63.80
81222;DHT22;70691;52.492;13.420;2023-07-31T02:10:01;18.50;63.80
81222;DHT22;70691;52.492;13.420;2023-07-31T02:12:27;18.50;63.70
81222;DHT22;70691;52.492;13.420;2023-07-31T02:14:58;18.50;63.90
81222;DHT22;70691;52.492;13.420;2023-07-31T02:17:24;18.50;64.20
81222;DHT22;70691;52.492;13.420;2023-07-31T02:19:49;18.50;64.20
81222;DHT22;70691;52.492;13.420;2023-07-31T02:22:15;18.50;63.90
81222;DHT22;70691;52.492;13.420;2023-07-31T02:24:41;18.50;63.60
81222;DHT22;70691;52.492;13.420;2023-07-31T02:27:06;18.60;63.40
81222;DHT22;70691;52.492;13.420;2023-07-31T02:29:32;18.50;63.30
81222;DHT22;70691;52.492;13.420;2023-07-31T02:31:57;18.60;63.20
81222;DHT22;70691;52.492;13.420;2023-07-31T02:34:23;18.50;63.80
81222;DHT22;70691;52.492;13.420;2023-07-31T02:36:48;18.50;64.10
81222;DHT22;70691;52.492;13.420;2023-07-31T02:39:14;18.50;63.80
81222;DHT22;70691;52.492;13.420;2023-07-31T02:41:40;18.60;63.70
81222;DHT22;70691;52.492;13.420;2023-07-31T02:44:05;18.60;63.40
81222;DHT22;70691;52.492;13.420;2023-07-31T02:46:31;18.60;63.60
81222;DHT22;70691;52.492;13.420;2023-07-31T02:48:57;18.50;63.70
81222;DHT22;70691;52.492;13.420;2023-07-31T02:51:22;18.50;63.90
81222;DHT22;70691;52.492;13.420;2023-07-31T02:53:48;18.60;64.00
81222;DHT22;70691;52.492;13.420;2023-07-31T02:56:14;18.60;63.90
81222;DHT22;70691;52.492;13.420;2023-07-31T02:58:39;18.60;64.20
81222;DHT22;70691;52.492;13.420;2023-07-31T03:01:05;18.60;64.60
81222;DHT22;70691;52.492;13.420;2023-07-31T03:03:30;18.60;64.80
81222;DHT22;70691;52.492;13.420;2023-07-31T03:05:56;18.60;64.30
81222;DHT22;70691;52.492;13.420;2023-07-31T03:08:22;18.60;63.70
81222;DHT22;70691;52.492;13.420;2023-07-31T03:10:48;18.70;63.80
81222;DHT22;70691;52.492;13.420;2023-07-31T03:13:13;18.70;63.70
81222;DHT22;70691;52.492;13.420;2023-07-31T03:15:42;18.60;64.00
81222;DHT22;70691;52.492;13.420;2023-07-31T03:18:07;18.60;64.10
81222;DHT22;70691;52.492;13.420;2023-07-31T03:20:33;18.70;64.10
81222;DHT22;70691;52.492;13.420;2023-07-31T03:22:59;18.60;64.10
81222;DHT22;70691;52.492;13.420;2023-07-31T03:25:24;18.70;64.20
81222;DHT22;70691;52.492;13.420;2023-07-31T03:27:50;18.60;64.40
81222;DHT22;70691;52.492;13.420;2023-07-31T03:30:16;18.60;64.60
81222;DHT22;70691;52.492;13.420;2023-07-31T03:32:41;18.60;64.60
81222;DHT22;70691;52.492;13.420;2023-07-31T03:35:07;18.60;64.40
81222;DHT22;70691;52.492;13.420;2023-07-31T03:37:33;18.60;64.60
81222;DHT22;70691;52.492;13.420;2023-07-31T03:39:58;18.60;65.00
81222;DHT22;70691;52.492;13.420;2023-07-31T03:42:24;18.50;64.90
81222;DHT22;70691;52.492;13.420;2023-07-31T03:44:50;18.50;65.10
81222;DHT22;70691;52.492;13.420;2023-07-31T03:47:15;18.50;65.20
81222;DHT22;70691;52.492;13.420;2023-07-31T03:49:41;18.50;65.20
81222;DHT22;70691;52.492;13.420;2023-07-31T03:52:07;18.50;65.50
81222;DHT22;70691;52.492;13.420;2023-07-31T03:54:33;18.50;65.60
81222;DHT22;70691;52.492;13.420;2023-07-31T03:56:58;18.50;65.60
81222;DHT22;70691;52.492;13.420;2023-07-31T03:59:24;18.50;65.60
81222;DHT22;70691;52.492;13.420;2023-07-31T04:01:50;18.50;65.30
81222;DHT22;70691;52.492;13.420;2023-07-31T04:04:15;18.50;65.40
81222;DHT22;70691;52.492;13.420;2023-07-31T04:06:41;18.50;65.50
81222;DHT22;70691;52.492;13.420;2023-07-31T04:09:06;18.50;65.60
81222;DHT22;70691;52.492;13.420;2023-07-31T04:11:32;18.50;65.40
81222;DHT22;70691;52.492;13.420;2023-07-31T04:13:58;18.60;65.20
81222;DHT22;70691;52.492;13.420;2023-07-31T04:16:23;18.60;65.20
81222;DHT22;70691;52.492;13.420;2023-07-31T04:18:49;18.60;65.20
81222;DHT22;70691;52.492;13.420;2023-07-31T04:21:15;18.60;64.80
81222;DHT22;70691;52.492;13.420;2023-07-31T04:23:40;18.60;65.10
81222;DHT22;70691;52.492;13.420;2023-07-31T04:26:06;18.60;65.20
81222;DHT22;70691;52.492;13.420;2023-07-31T04:28:31;18.60;65.20
81222;DHT22;70691;52.492;13.420;2023-07-31T04:30:57;18.60;65.00
81222;DHT22;70691;52.492;13.420;2023-07-31T04:33:23;18.60;64.90
81222;DHT22;70691;52.492;13.420;2023-07-31T04:35:53;18.70;64.60
81222;DHT22;70691;52.492;13.420;2023-07-31T04:38:20;18.70;65.00
81222;DHT22;70691;52.492;13.420;2023-07-31T04:40:46;18.70;65.00
81222;DHT22;70691;52.492;13.420;2023-07-31T04:43:12;18.70;65.10
81222;DHT22;70691;52.492;13.420;2023-07-31T04:45:38;18.70;65.10
81222;DHT22;70691;52.492;13.420;2023-07-31T04:48:04;18.80;64.60
81222;DHT22;70691;52.492;13.420;2023-07-31T04:50:29;18.80;64.40
81222;DHT22;70691;52.492;13.420;2023-07-31T04:52:56;18.80;64.50
81222;DHT22;70691;52.492;13.420;2023-07-31T04:55:22;18.80;65.00
81222;DHT22;70691;52.492;13.420;2023-07-31T04:57:47;18.80;64.70
81222;DHT22;70691;52.492;13.420;2023-07-31T05:00:13;18.90;64.70
81222;DHT22;70691;52.492;13.420;2023-07-31T05:02:39;18.90;64.70
81222;DHT22;70691;52.492;13.420;2023-07-31T05:05:04;18.80;64.90
81222;DHT22;70691;52.492;13.420;2023-07-31T05:07:30;18.90;64.80
81222;DHT22;70691;52.492;13.420;2023-07-31T05:09:56;18.90;65.00
81222;DHT22;70691;52.492;13.420;2023-07-31T05:12:21;18.90;65.20
81222;DHT22;70691;52.492;13.420;2023-07-31T05:14:47;19.00;66.10
81222;DHT22;70691;52.492;13.420;2023-07-31T05:17:12;19.10;64.60
81222;DHT22;70691;52.492;13.420;2023-07-31T05:19:38;19.10;64.40
81222;DHT22;70691;52.492;13.420;2023-07-31T05:22:04;19.20;64.30
81222;DHT22;70691;52.492;13.420;2023-07-31T05:24:30;19.20;64.10
81222;DHT22;70691;52.492;13.420;2023-07-31T05:26:55;19.30;63.70
81222;DHT22;70691;52.492;13.420;2023-07-31T05:29:21;19.30;63.40
81222;DHT22;70691;52.492;13.420;2023-07-31T05:31:47;19.30;63.40
81222;DHT22;70691;52.492;13.420;2023-07-31T05:34:12;19.40;63.50
81222;DHT22;70691;52.492;13.420;2023-07-31T05:36:38;19.40;63.50
81222;DHT22;70691;52.492;13.420;2023-07-31T05:39:03;19.40;63.20
81222;DHT22;70691;52.492;13.420;2023-07-31T05:41:32;19.40;63.30
81222;DHT22;70691;52.492;13.420;2023-07-31T05:43:58;19.50;63.10
81222;DHT22;70691;52.492;13.420;2023-07-31T05:46:24;19.40;63.00
81222;DHT22;70691;52.492;13.420;2023-07-31T05:48:49;19.40;63.50
81222;DHT22;70691;52.492;13.420;2023-07-31T05:51:15;19.40;63.30
81222;DHT22;70691;52.492;13.420;2023-07-31T05:53:41;19.50;62.70
81222;DHT22;70691;52.492;13.420;2023-07-31T05:56:07;19.60;62.40
81222;DHT22;70691;52.492;13.420;2023-07-31T05:58:32;19.50;62.90
81222;DHT22;70691;52.492;13.420;2023-07-31T06:00:58;19.50;63.10
81222;DHT22;70691;52.492;13.420;2023-07-31T06:03:23;19.50;62.90
81222;DHT22;70691;52.492;13.420;2023-07-31T06:05:49;19.50;63.10
81222;DHT22;70691;52.492;13.420;2023-07-31T06:08:15;19.50;63.00
81222;DHT22;70691;52.492;13.420;2023-07-31T06:10:41;19.60;62.30
81222;DHT22;70691;52.492;13.420;2023-07-31T06:13:06;19.70;62.40
81222;DHT22;70691;52.492;13.420;2023-07-31T06:15:32;19.60;62.30
81222;DHT22;70691;52.492;13.420;2023-07-31T06:17:57;19.70;61.80
81222;DHT22;70691;52.492;13.420;2023-07-31T06:20:24;19.70;62.10
81222;DHT22;70691;52.492;13.420;2023-07-31T06:22:50;19.70;62.50
81222;DHT22;70691;52.492;13.420;2023-07-31T06:25:15;19.70;62.40
81222;DHT22;70691;52.492;13.420;2023-07-31T06:27:41;19.80;62.10
81222;DHT22;70691;52.492;13.420;2023-07-31T06:30:07;19.80;62.10
81222;DHT22;70691;52.492;13.420;2023-07-31T06:32:33;19.80;62.40
81222;DHT22;70691;52.492;13.420;2023-07-31T06:34:58;19.90;62.30
81222;DHT22;70691;52.492;13.420;2023-07-31T06:37:24;19.90;62.20
81222;DHT22;70691;52.492;13.420;2023-07-31T06:39:50;19.90;62.40
81222;DHT22;70691;52.492;13.420;2023-07-31T06:42:15;20.00;62.00
81222;DHT22;70691;52.492;13.420;2023-07-31T06:44:41;20.10;61.60
81222;DHT22;70691;52.492;13.420;2023-07-31T06:47:08;20.10;61.70
81222;DHT22;70691;52.492;13.420;2023-07-31T06:49:34;20.30;60.40
81222;DHT22;70691;52.492;13.420;2023-07-31T06:51:59;20.40;59.80
81222;DHT22;70691;52.492;13.420;2023-07-31T06:54:25;20.50;60.00
81222;DHT22;70691;52.492;13.420;2023-07-31T06:56:51;20.40;60.40
81222;DHT22;70691;52.492;13.420;2023-07-31T06:59:16;20.40;60.30
81222;DHT22;70691;52.492;13.420;2023-07-31T07:01:42;20.40;60.30
81222;DHT22;70691;52.492;13.420;2023-07-31T07:04:07;20.40;60.50
81222;DHT22;70691;52.492;13.420;2023-07-31T07:06:33;20.30;60.90
81222;DHT22;70691;52.492;13.420;2023-07-31T07:08:59;20.30;61.00
81222;DHT22;70691;52.492;13.420;2023-07-31T07:11:24;20.40;60.70
81222;DHT22;70691;52.492;13.420;2023-07-31T07:13:51;20.40;60.20
81222;DHT22;70691;52.492;13.420;2023-07-31T07:16:16;20.60;59.40
81222;DHT22;70691;52.492;13.420;2023-07-31T07:18:42;20.50;59.80
81222;DHT22;70691;52.492;13.420;2023-07-31T07:21:08;20.40;59.70
81222;DHT22;70691;52.492;13.420;2023-07-31T07:23:33;20.30;60.00
81222;DHT22;70691;52.492;13.420;2023-07-31T07:25:59;20.30;60.70
81222;DHT22;70691;52.492;13.420;2023-07-31T07:28:25;20.20;61.00
81222;DHT22;70691;52.492;13.420;2023-07-31T07:30:52;20.30;60.80
81222;DHT22;70691;52.492;13.420;2023-07-31T07:33:18;20.40;60.10
81222;DHT22;70691;52.492;13.420;2023-07-31T07:35:44;20.60;59.80
81222;DHT22;70691;52.492;13.420;2023-07-31T07:38:10;20.80;59.60
81222;DHT22;70691;52.492;13.420;2023-07-31T07:40:39;20.70;59.30
81222;DHT22;70691;52.492;13.420;2023-07-31T07:43:05;20.90;59.30
81222;DHT22;70691;52.492;13.420;2023-07-31T07:45:30;21.10;58.30
81222;DHT22;70691;52.492;13.420;2023-07-31T07:47:56;21.10;57.80
81222;DHT22;70691;52.492;13.420;2023-07-31T07:50:21;21.30;57.20
81222;DHT22;70691;52.492;13.420;2023-07-31T07:52:47;21.40;56.90
81222;DHT22;70691;52.492;13.420;2023-07-31T07:55:13;21.50;56.60
81222;DHT22;70691;52.492;13.420;2023-07-31T07:57:38;21.40;56.90
81222;DHT22;70691;52.492;13.420;2023-07-31T08:00:05;21.40;57.40
81222;DHT22;70691;52.492;13.420;2023-07-31T08:02:31;21.40;56.60
81222;DHT22;70691;52.492;13.420;2023-07-31T08:04:56;21.40;56.80
81222;DHT22;70691;52.492;13.420;2023-07-31T08:07:22;21.20;57.80
81222;DHT22;70691;52.492;13.420;2023-07-31T08:09:48;21.20;58.10
81222;DHT22;70691;52.492;13.420;2023-07-31T08:12:14;21.30;57.80
81222;DHT22;70691;52.492;13.420;2023-07-31T08:14:40;21.40;57.60
81222;DHT22;70691;52.492;13.420;2023-07-31T08:17:06;21.30;58.10
81222;DHT22;70691;52.492;13.420;2023-07-31T08:19:31;21.30;58.30
81222;DHT22;70691;52.492;13.420;2023-07-31T08:21:57;21.10;58.80
81222;DHT22;70691;52.492;13.420;2023-07-31T08:24:23;21.00;59.30
81222;DHT22;70691;52.492;13.420;2023-07-31T08:26:48;21.00;59.30
81222;DHT22;70691;52.492;13.420;2023-07-31T08:29:14;21.10;58.80
81222;DHT22;70691;52.492;13.420;2023-07-31T08:31:40;21.10;58.80
81222;DHT22;70691;52.492;13.420;2023-07-31T08:34:05;21.30;59.20
81222;DHT22;70691;52.492;13.420;2023-07-31T08:36:31;21.40;58.80
81222;DHT22;70691;52.492;13.420;2023-07-31T08:38:57;21.50;58.20
81222;DHT22;70691;52.492;13.420;2023-07-31T08:41:22;21.50;58.70
81222;DHT22;70691;52.492;13.420;2023-07-31T08:43:50;21.50;58.20
81222;DHT22;70691;52.492;13.420;2023-07-31T08:46:16;21.40;58.80
81222;DHT22;70691;52.492;13.420;2023-07-31T08:48:42;21.40;58.70
81222;DHT22;70691;52.492;13.420;2023-07-31T08:51:09;21.40;59.40
81222;DHT22;70691;52.492;13.420;2023-07-31T08:53:35;21.40;59.30
81222;DHT22;70691;52.492;13.420;2023-07-31T08:56:01;21.50;58.20
81222;DHT22;70691;52.492;13.420;2023-07-31T08:58:32;21.60;58.30
81222;DHT22;70691;52.492;13.420;2023-07-31T09:01:03;21.80;58.10
81222;DHT22;70691;52.492;13.420;2023-07-31T09:03:33;21.80;57.40
81222;DHT22;70691;52.492;13.420;2023-07-31T09:06:01;21.80;57.10
81222;DHT22;70691;52.492;13.420;2023-07-31T09:08:30;21.90;56.70
81222;DHT22;70691;52.492;13.420;2023-07-31T09:11:00;22.00;56.60
81222;DHT22;70691;52.492;13.420;2023-07-31T09:13:29;22.00;57.10
81222;DHT22;70691;52.492;13.420;2023-07-31T09:15:55;21.90;56.70
81222;DHT22;70691;52.492;13.420;2023-07-31T09:18:20;22.00;56.30
81222;DHT22;70691;52.492;13.420;2023-07-31T09:21:01;22.10;55.90
81222;DHT22;70691;52.492;13.420;2023-07-31T09:23:44;22.10;56.00
81222;DHT22;70691;52.492;13.420;2023-07-31T09:26:10;22.00;55.90
81222;DHT22;70691;52.492;13.420;2023-07-31T09:28:36;22.10;55.50
81222;DHT22;70691;52.492;13.420;2023-07-31T09:31:02;22.10;55.60
81222;DHT22;70691;52.492;13.420;2023-07-31T09:33:27;22.00;55.80
81222;DHT22;70691;52.492;13.420;2023-07-31T09:35:53;21.90;56.20
81222;DHT22;70691;52.492;13.420;2023-07-31T09:38:19;21.70;57.30
81222;DHT22;70691;52.492;13.420;2023-07-31T09:40:46;21.50;57.70
81222;DHT22;70691;52.492;13.420;2023-07-31T09:43:31;21.40;58.20
81222;DHT22;70691;52.492;13.420;2023-07-31T09:45:57;21.30;58.80
81222;DHT22;70691;52.492;13.420;2023-07-31T09:48:24;21.30;58.90
81222;DHT22;70691;52.492;13.420;2023-07-31T09:50:53;21.30;58.50
81222;DHT22;70691;52.492;13.420;2023-07-31T09:53:19;21.30;58.80
81222;DHT22;70691;52.492;13.420;2023-07-31T09:55:45;21.20;59.00
81222;DHT22;70691;52.492;13.420;2023-07-31T09:58:12;21.20;59.60
81222;DHT22;70691;52.492;13.420;2023-07-31T10:00:38;21.20;59.00
81222;DHT22;70691;52.492;13.420;2023-07-31T10:03:09;21.30;58.70
81222;DHT22;70691;52.492;13.420;2023-07-31T10:05:42;21.30;58.60
81222;DHT22;70691;52.492;13.420;2023-07-31T10:08:09;21.40;58.40
81222;DHT22;70691;52.492;13.420;2023-07-31T10:10:36;21.50;57.90
81222;DHT22;70691;52.492;13.420;2023-07-31T10:13:04;21.60;57.60
81222;DHT22;70691;52.492;13.420;2023-07-31T10:15:30;21.70;57.40
81222;DHT22;70691;52.492;13.420;2023-07-31T10:17:58;21.90;56.90
81222;DHT22;70691;52.492;13.420;2023-07-31T10:20:24;22.10;56.20
81222;DHT22;70691;52.492;13.420;2023-07-31T10:22:54;22.10;56.10
81222;DHT22;70691;52.492;13.420;2023-07-31T10:25:20;22.00;56.20
81222;DHT22;70691;52.492;13.420;2023-07-31T10:27:47;21.90;56.60
81222;DHT22;70691;52.492;13.420;2023-07-31T10:30:20;21.90;56.60
81222;DHT22;70691;52.492;13.420;2023-07-31T10:32:48;22.00;56.70
81222;DHT22;70691;52.492;13.420;2023-07-31T10:35:16;22.00;57.10
81222;DHT22;70691;52.492;13.420;2023-07-31T10:37:43;22.00;57.70
81222;DHT22;70691;52.492;13.420;2023-07-31T10:40:17;22.20;57.50
81222;DHT22;70691;52.492;13.420;2023-07-31T10:42:50;22.30;58.20
81222;DHT22;70691;52.492;13.420;2023-07-31T10:45:35;22.50;56.30
81222;DHT22;70691;52.492;13.420;2023-07-31T10:48:05;22.60;55.70
81222;DHT22;70691;52.492;13.420;2023-07-31T10:50:51;22.70;55.70
81222;DHT22;70691;52.492;13.420;2023-07-31T10:53:26;23.00;55.00
81222;DHT22;70691;52.492;13.420;2023-07-31T10:55:52;23.30;54.40
81222;DHT22;70691;52.492;13.420;2023-07-31T10:58:19;23.50;53.90
81222;DHT22;70691;52.492;13.420;2023-07-31T11:00:46;23.70;53.30
81222;DHT22;70691;52.492;13.420;2023-07-31T11:03:19;23.70;52.00
81222;DHT22;70691;52.492;13.420;2023-07-31T11:06:01;23.80;51.50
81222;DHT22;70691;52.492;13.420;2023-07-31T11:08:33;24.00;51.10
81222;DHT22;70691;52.492;13.420;2023-07-31T11:13:28;24.20;49.20
81222;DHT22;70691;52.492;13.420;2023-07-31T11:15:54;24.30;49.10
81222;DHT22;70691;52.492;13.420;2023-07-31T11:18:20;24.30;48.30
81222;DHT22;70691;52.492;13.420;2023-07-31T11:20:47;24.20;47.30
81222;DHT22;70691;52.492;13.420;2023-07-31T11:23:16;24.00;47.50
81222;DHT22;70691;52.492;13.420;2023-07-31T11:25:42;24.00;47.80
81222;DHT22;70691;52.492;13.420;2023-07-31T11:28:15;24.00;47.30
81222;DHT22;70691;52.492;13.420;2023-07-31T11:30:42;24.10;47.00
81222;DHT22;70691;52.492;13.420;2023-07-31T11:33:10;24.00;47.60
81222;DHT22;70691;52.492;13.420;2023-07-31T11:35:48;24.10;47.30
81222;DHT22;70691;52.492;13.420;2023-07-31T11:41:00;24.20;46.30
81222;DHT22;70691;52.492;13.420;2023-07-31T11:43:26;24.10;45.70
81222;DHT22;70691;52.492;13.420;2023-07-31T11:45:58;24.00;46.20
81222;DHT22;70691;52.492;13.420;2023-07-31T11:48:32;24.00;46.40
81222;DHT22;70691;52.492;13.420;2023-07-31T11:51:05;23.90;47.10
81222;DHT22;70691;52.492;13.420;2023-07-31T11:53:50;23.80;46.40
81222;DHT22;70691;52.492;13.420;2023-07-31T11:56:18;23.80;46.00
81222;DHT22;70691;52.492;13.420;2023-07-31T11:59:03;23.80;46.00
81222;DHT22;70691;52.492;13.420;2023-07-31T12:01:30;23.80;46.20
81222;DHT22;70691;52.492;13.420;2023-07-31T12:03:57;23.70;46.00
81222;DHT22;70691;52.492;13.420;2023-07-31T12:06:35;23.60;46.50
81222;DHT22;70691;52.492;13.420;2023-07-31T12:09:05;23.50;46.60
81222;DHT22;70691;52.492;13.420;2023-07-31T12:11:31;23.40;47.30
81222;DHT22;70691;52.492;13.420;2023-07-31T12:13:56;23.30;47.60
81222;DHT22;70691;52.492;13.420;2023-07-31T12:16:26;23.40;47.60
81222;DHT22;70691;52.492;13.420;2023-07-31T12:18:52;23.60;47.40
81222;DHT22;70691;52.492;13.420;2023-07-31T12:21:19;23.70;47.00
81222;DHT22;70691;52.492;13.420;2023-07-31T12:23:45;23.80;46.30
81222;DHT22;70691;52.492;13.420;2023-07-31T12:26:12;23.90;46.10
81222;DHT22;70691;52.492;13.420;2023-07-31T12:28:45;24.00;45.50
81222;DHT22;70691;52.492;13.420;2023-07-31T12:31:13;24.10;45.10
81222;DHT22;70691;52.492;13.420;2023-07-31T12:33:40;24.10;45.10
81222;DHT22;70691;52.492;13.420;2023-07-31T12:36:17;24.30;44.10
81222;DHT22;70691;52.492;13.420;2023-07-31T12:38:43;24.40;43.90
81222;DHT22;70691;52.492;13.420;2023-07-31T12:41:10;24.50;43.30
81222;DHT22;70691;52.492;13.420;2023-07-31T12:43:38;24.60;43.40
81222;DHT22;70691;52.492;13.420;2023-07-31T12:46:04;24.60;43.70
81222;DHT22;70691;52.492;13.420;2023-07-31T12:48:31;24.60;43.90
81222;DHT22;70691;52.492;13.420;2023-07-31T12:50:57;24.70;44.20
81222;DHT22;70691;52.492;13.420;2023-07-31T12:53:23;24.80;44.20
81222;DHT22;70691;52.492;13.420;2023-07-31T12:55:48;24.80;43.80
81222;DHT22;70691;52.492;13.420;2023-07-31T12:58:14;24.90;43.60
81222;DHT22;70691;52.492;13.420;2023-07-31T13:00:40;24.80;43.60
81222;DHT22;70691;52.492;13.420;2023-07-31T13:03:06;24.70;43.60
81222;DHT22;70691;52.492;13.420;2023-07-31T13:05:34;24.70;43.70
81222;DHT22;70691;52.492;13.420;2023-07-31T13:08:00;24.70;43.60
81222;DHT22;70691;52.492;13.420;2023-07-31T13:10:27;24.70;44.30
81222;DHT22;70691;52.492;13.420;2023-07-31T13:12:54;24.50;44.60
81222;DHT22;70691;52.492;13.420;2023-07-31T13:15:20;24.40;43.60
81222;DHT22;70691;52.492;13.420;2023-07-31T13:17:46;24.40;43.30
81222;DHT22;70691;52.492;13.420;2023-07-31T13:20:12;24.40;43.80
81222;DHT22;70691;52.492;13.420;2023-07-31T13:22:38;24.20;44.30
81222;DHT22;70691;52.492;13.420;2023-07-31T13:25:06;24.20;44.40
81222;DHT22;70691;52.492;13.420;2023-07-31T13:27:32;24.20;44.80
81222;DHT22;70691;52.492;13.420;2023-07-31T13:29:58;24.10;44.90
81222;DHT22;70691;52.492;13.420;2023-07-31T13:32:24;24.00;45.60
81222;DHT22;70691;52.492;13.420;2023-07-31T13:34:50;23.90;46.10
81222;DHT22;70691;52.492;13.420;2023-07-31T13:37:15;23.90;46.50
81222;DHT22;70691;52.492;13.420;2023-07-31T13:39:41;24.00;46.00
81222;DHT22;70691;52.492;13.420;2023-07-31T13:42:10;24.30;45.60
81222;DHT22;70691;52.492;13.420;2023-07-31T13:44:42;24.60;44.70
81222;DHT22;70691;52.492;13.420;2023-07-31T13:47:08;24.70;44.20
81222;DHT22;70691;52.492;13.420;2023-07-31T13:49:35;24.80;43.90
81222;DHT22;70691;52.492;13.420;2023-07-31T13:52:01;24.90;43.70
81222;DHT22;70691;52.492;13.420;2023-07-31T13:54:27;25.00;43.80
81222;DHT22;70691;52.492;13.420;2023-07-31T13:56:53;25.00;43.70
81222;DHT22;70691;52.492;13.420;2023-07-31T13:59:20;25.10;43.10
81222;DHT22;70691;52.492;13.420;2023-07-31T14:01:46;25.00;44.20
81222;DHT22;70691;52.492;13.420;2023-07-31T14:04:12;25.00;43.20
81222;DHT22;70691;52.492;13.420;2023-07-31T14:06:38;24.90;43.30
81222;DHT22;70691;52.492;13.420;2023-07-31T14:09:03;25.00;43.50
81222;DHT22;70691;52.492;13.420;2023-07-31T14:11:30;25.00;43.90
81222;DHT22;70691;52.492;13.420;2023-07-31T14:13:56;24.90;43.90
81222;DHT22;70691;52.492;13.420;2023-07-31T14:16:23;25.00;43.50
81222;DHT22;70691;52.492;13.420;2023-07-31T14:18:48;25.00;43.70
81222;DHT22;70691;52.492;13.420;2023-07-31T14:21:14;25.00;43.80
81222;DHT22;70691;52.492;13.420;2023-07-31T14:23:40;25.00;43.40
81222;DHT22;70691;52.492;13.420;2023-07-31T14:26:06;24.90;43.70
81222;DHT22;70691;52.492;13.420;2023-07-31T14:28:32;24.80;44.00
81222;DHT22;70691;52.492;13.420;2023-07-31T14:30:58;24.70;44.40
81222;DHT22;70691;52.492;13.420;2023-07-31T14:33:24;24.70;44.30
81222;DHT22;70691;52.492;13.420;2023-07-31T14:35:49;24.60;44.70
81222;DHT22;70691;52.492;13.420;2023-07-31T14:38:15;24.70;44.80
81222;DHT22;70691;52.492;13.420;2023-07-31T14:40:41;24.60;44.40
81222;DHT22;70691;52.492;13.420;2023-07-31T14:43:07;24.70;44.20
81222;DHT22;70691;52.492;13.420;2023-07-31T14:45:33;24.80;43.90
81222;DHT22;70691;52.492;13.420;2023-07-31T14:47:58;24.80;43.60
81222;DHT22;70691;52.492;13.420;2023-07-31T14:50:25;24.70;43.80
81222;DHT22;70691;52.492;13.420;2023-07-31T14:52:51;24.70;43.90
81222;DHT22;70691;52.492;13.420;2023-07-31T14:55:18;24.70;44.00
81222;DHT22;70691;52.492;13.420;2023-07-31T14:57:43;24.70;43.60
81222;DHT22;70691;52.492;13.420;2023-07-31T15:00:09;24.70;43.50
81222;DHT22;70691;52.492;13.420;2023-07-31T15:02:36;24.60;43.70
81222;DHT22;70691;52.492;13.420;2023-07-31T15:05:02;24.60;43.50
81222;DHT22;70691;52.492;13.420;2023-07-31T15:07:28;24.50;43.70
81222;DHT22;70691;52.492;13.420;2023-07-31T15:09:54;24.50;43.60
81222;DHT22;70691;52.492;13.420;2023-07-31T15:12:19;24.30;44.20
81222;DHT22;70691;52.492;13.420;2023-07-31T15:14:45;24.20;44.40
81222;DHT22;70691;52.492;13.420;2023-07-31T15:17:11;24.20;44.20
81222;DHT22;70691;52.492;13.420;2023-07-31T15:19:36;24.20;44.90
81222;DHT22;70691;52.492;13.420;2023-07-31T15:22:03;24.10;45.60
81222;DHT22;70691;52.492;13.420;2023-07-31T15:24:29;24.00;46.20
81222;DHT22;70691;52.492;13.420;2023-07-31T15:26:55;24.10;47.40
81222;DHT22;70691;52.492;13.420;2023-07-31T15:29:20;24.10;47.40